PAKH

Akhiok Airport

Airport
ICAO code
PAKH
IATA Code
AKK
Summary
ICAO Region
NAM
ICAO Territory
Location

Akhiok, Alaska

Serving
Akhiok
Elevation
44 ft
Coordinates
56° 56' 19" N , 154° 10' 57" W
Metar
PAKH 200656Z AUTO 32011KT 10SM CLR 14/09 A3019 RMK AO2 SLP221 T01440089 PNO $

Runways

Designator Length Width Surface Rops
4/22 951 15 GRAVEL-G No/No

Airport map

Aerial View

SKYbrary Partners:

Safety knowledge contributed by: